Terminal Aerodrome Forecast
Issued by NWS

Home | Current Version | Previous Version | Text Only | Print | Product List | Glossary On
Versions: 1 2 3 4 5 6 7 8 9 10 11 12 13
428
FTUS44 KLZK 041138
TAFADF
TAF
KADF 041138Z 0412/0512 VRB03KT P6SM SKC
     FM041400 28008G16KT P6SM FEW080
     FM042130 32010G20KT P6SM SCT080
     FM050100 VRB03KT P6SM SKC=

USA.gov is the U.S. government's official web portal to all federal, state and local government web resources and services.